Terminal Aerodrome Forecast
Issued by NWS Billings, MT

Home | Current Version | Previous Version | Graphics & Text | Print | Product List | Glossary On
Versions: 1 2 3 4 5 6 7 8 9 10 11 12 13 14 15 16
000
FTUS45 KBYZ 261133
TAFMLS
TAF
KMLS 261133Z 2612/2712 29010KT P6SM OVC080
     FM262100 30015G25KT P6SM OVC050
     FM270000 01010KT P6SM VCSH BKN040=

USA.gov is the U.S. government's official web portal to all federal, state and local government web resources and services.